Decoded Metar for PFKT ( in ) (IATA:) | Meteo·Mobile Aviation Weather
aviador You're here:

PFKT Decoded Metar

in
Report Time2019-10-22 12:56:00
UTC Time2019-10-22 13:32:00
Flight Rules vfr VFR
Wind060° at 11 kt
W.Decomp.*RWY 04: 10.3 kt HW 3.8 kt RCW
RWY 11: 7.1 kt HW 8.4 kt LCW
RWY 12: 5.5 kt HW 9.5 kt LCW
Visibility9999 m
Phenomena:N/A
Clouds:Broken 065 Hf
Expected CloudBase > 1,200 ft AGL from Temp-Dew spread
Ceiling6,500 ft
Temp-3°C
Dew Point-6°C (80% RH)
AAT-9.7°C
QNH1009 hPa
Raw Report
PFKT 221256Z AUTO 06011KT 10SM BKN065 M03/M06 A2981 RMK AO2 SLP094
T10281061 FZRANO=

Extra information for PFKT:More info

Social comments